sensor_id;sensor_type;location;lat;lon;timestamp;P1;durP1;ratioP1;P2;durP2;ratioP2
54408;SDS011;40315;48.620;9.828;2023-04-03T00:00:44;4.75;;;3.60;;
54408;SDS011;40315;48.620;9.828;2023-04-03T00:03:11;4.90;;;3.53;;
54408;SDS011;40315;48.620;9.828;2023-04-03T00:05:38;4.27;;;3.43;;
54408;SDS011;40315;48.620;9.828;2023-04-03T00:08:07;3.83;;;3.17;;
54408;SDS011;40315;48.620;9.828;2023-04-03T00:10:37;4.03;;;3.17;;
54408;SDS011;40315;48.620;9.828;2023-04-03T00:13:06;4.47;;;3.30;;
54408;SDS011;40315;48.620;9.828;2023-04-03T00:15:36;4.23;;;3.33;;
54408;SDS011;40315;48.620;9.828;2023-04-03T00:18:07;4.50;;;3.33;;
54408;SDS011;40315;48.620;9.828;2023-04-03T00:20:34;3.70;;;3.40;;
54408;SDS011;40315;48.620;9.828;2023-04-03T00:23:04;3.93;;;3.50;;
54408;SDS011;40315;48.620;9.828;2023-04-03T00:25:31;3.80;;;3.30;;
54408;SDS011;40315;48.620;9.828;2023-04-03T00:27:58;4.90;;;3.47;;
54408;SDS011;40315;48.620;9.828;2023-04-03T00:30:25;3.90;;;3.50;;
54408;SDS011;40315;48.620;9.828;2023-04-03T00:32:56;5.77;;;3.30;;
54408;SDS011;40315;48.620;9.828;2023-04-03T00:35:23;4.40;;;3.47;;
54408;SDS011;40315;48.620;9.828;2023-04-03T00:37:51;4.90;;;3.57;;
54408;SDS011;40315;48.620;9.828;2023-04-03T00:40:19;4.72;;;3.65;;
54408;SDS011;40315;48.620;9.828;2023-04-03T00:42:54;4.95;;;3.40;;
54408;SDS011;40315;48.620;9.828;2023-04-03T00:45:35;4.23;;;3.47;;
54408;SDS011;40315;48.620;9.828;2023-04-03T00:48:06;3.70;;;3.30;;
54408;SDS011;40315;48.620;9.828;2023-04-03T00:50:38;3.80;;;3.50;;
54408;SDS011;40315;48.620;9.828;2023-04-03T00:53:09;5.38;;;3.83;;
54408;SDS011;40315;48.620;9.828;2023-04-03T00:55:39;5.20;;;3.73;;
54408;SDS011;40315;48.620;9.828;2023-04-03T00:58:06;5.07;;;3.87;;
54408;SDS011;40315;48.620;9.828;2023-04-03T01:03:23;6.63;;;3.70;;
54408;SDS011;40315;48.620;9.828;2023-04-03T01:05:50;5.60;;;3.70;;
54408;SDS011;40315;48.620;9.828;2023-04-03T01:08:17;5.13;;;3.53;;
54408;SDS011;40315;48.620;9.828;2023-04-03T01:10:44;4.47;;;3.70;;
54408;SDS011;40315;48.620;9.828;2023-04-03T01:13:21;5.50;;;4.17;;
54408;SDS011;40315;48.620;9.828;2023-04-03T01:15:51;4.07;;;3.60;;
54408;SDS011;40315;48.620;9.828;2023-04-03T01:18:18;4.27;;;3.70;;
54408;SDS011;40315;48.620;9.828;2023-04-03T01:26:35;5.80;;;4.00;;
54408;SDS011;40315;48.620;9.828;2023-04-03T01:29:03;4.40;;;3.73;;
54408;SDS011;40315;48.620;9.828;2023-04-03T01:31:31;4.40;;;4.00;;
54408;SDS011;40315;48.620;9.828;2023-04-03T01:34:10;4.37;;;3.97;;
54408;SDS011;40315;48.620;9.828;2023-04-03T01:36:37;4.37;;;3.60;;
54408;SDS011;40315;48.620;9.828;2023-04-03T01:39:05;5.43;;;3.67;;
54408;SDS011;40315;48.620;9.828;2023-04-03T01:41:34;5.17;;;3.53;;
54408;SDS011;40315;48.620;9.828;2023-04-03T01:44:10;4.10;;;3.57;;
54408;SDS011;40315;48.620;9.828;2023-04-03T01:50:02;5.23;;;3.43;;
54408;SDS011;40315;48.620;9.828;2023-04-03T01:52:32;4.47;;;3.10;;
54408;SDS011;40315;48.620;9.828;2023-04-03T01:54:59;3.47;;;3.00;;
54408;SDS011;40315;48.620;9.828;2023-04-03T01:57:28;5.07;;;3.40;;
54408;SDS011;40315;48.620;9.828;2023-04-03T01:59:55;5.37;;;3.50;;
54408;SDS011;40315;48.620;9.828;2023-04-03T02:02:23;5.60;;;3.30;;
54408;SDS011;40315;48.620;9.828;2023-04-03T02:04:51;3.50;;;2.93;;
54408;SDS011;40315;48.620;9.828;2023-04-03T02:07:19;4.13;;;3.20;;
54408;SDS011;40315;48.620;9.828;2023-04-03T02:09:46;3.83;;;3.37;;
54408;SDS011;40315;48.620;9.828;2023-04-03T02:12:13;3.47;;;3.17;;
54408;SDS011;40315;48.620;9.828;2023-04-03T02:14:43;3.60;;;3.00;;
54408;SDS011;40315;48.620;9.828;2023-04-03T02:17:11;4.13;;;3.40;;
54408;SDS011;40315;48.620;9.828;2023-04-03T02:19:40;3.23;;;2.93;;
54408;SDS011;40315;48.620;9.828;2023-04-03T02:22:07;2.77;;;2.57;;
54408;SDS011;40315;48.620;9.828;2023-04-03T02:24:36;4.85;;;2.75;;
54408;SDS011;40315;48.620;9.828;2023-04-03T02:27:06;3.43;;;2.90;;
54408;SDS011;40315;48.620;9.828;2023-04-03T02:29:33;2.83;;;2.53;;
54408;SDS011;40315;48.620;9.828;2023-04-03T02:32:01;3.63;;;3.33;;
54408;SDS011;40315;48.620;9.828;2023-04-03T02:34:29;4.13;;;3.10;;
54408;SDS011;40315;48.620;9.828;2023-04-03T02:36:58;6.03;;;3.07;;
54408;SDS011;40315;48.620;9.828;2023-04-03T02:39:26;5.07;;;2.87;;
54408;SDS011;40315;48.620;9.828;2023-04-03T02:41:55;3.57;;;3.27;;
54408;SDS011;40315;48.620;9.828;2023-04-03T02:44:24;4.50;;;3.23;;
54408;SDS011;40315;48.620;9.828;2023-04-03T02:46:52;3.97;;;3.07;;
54408;SDS011;40315;48.620;9.828;2023-04-03T02:49:22;4.43;;;2.90;;
54408;SDS011;40315;48.620;9.828;2023-04-03T02:51:49;3.20;;;2.73;;
54408;SDS011;40315;48.620;9.828;2023-04-03T02:54:17;4.60;;;3.30;;
54408;SDS011;40315;48.620;9.828;2023-04-03T02:56:49;5.43;;;3.20;;
54408;SDS011;40315;48.620;9.828;2023-04-03T02:59:18;3.27;;;2.97;;
54408;SDS011;40315;48.620;9.828;2023-04-03T03:01:45;3.30;;;2.90;;
54408;SDS011;40315;48.620;9.828;2023-04-03T03:04:12;3.60;;;3.20;;
54408;SDS011;40315;48.620;9.828;2023-04-03T03:06:39;3.53;;;3.03;;
54408;SDS011;40315;48.620;9.828;2023-04-03T03:09:06;3.57;;;3.03;;
54408;SDS011;40315;48.620;9.828;2023-04-03T03:11:33;3.40;;;2.87;;
54408;SDS011;40315;48.620;9.828;2023-04-03T03:14:02;3.37;;;2.83;;
54408;SDS011;40315;48.620;9.828;2023-04-03T03:16:30;3.47;;;3.00;;
54408;SDS011;40315;48.620;9.828;2023-04-03T03:18:57;3.60;;;3.03;;
54408;SDS011;40315;48.620;9.828;2023-04-03T03:21:25;3.90;;;2.90;;
54408;SDS011;40315;48.620;9.828;2023-04-03T03:23:52;3.47;;;3.13;;
54408;SDS011;40315;48.620;9.828;2023-04-03T03:26:20;3.47;;;3.10;;
54408;SDS011;40315;48.620;9.828;2023-04-03T03:28:47;3.40;;;3.10;;
54408;SDS011;40315;48.620;9.828;2023-04-03T03:31:16;3.77;;;2.97;;
54408;SDS011;40315;48.620;9.828;2023-04-03T03:33:44;3.70;;;3.10;;
54408;SDS011;40315;48.620;9.828;2023-04-03T03:36:11;4.67;;;3.60;;
54408;SDS011;40315;48.620;9.828;2023-04-03T03:38:38;5.20;;;2.90;;
54408;SDS011;40315;48.620;9.828;2023-04-03T03:41:05;4.37;;;2.77;;
54408;SDS011;40315;48.620;9.828;2023-04-03T03:43:33;2.83;;;2.60;;
54408;SDS011;40315;48.620;9.828;2023-04-03T03:46:03;2.83;;;2.60;;
54408;SDS011;40315;48.620;9.828;2023-04-03T03:48:30;3.63;;;2.97;;
54408;SDS011;40315;48.620;9.828;2023-04-03T03:50:58;4.20;;;2.60;;
54408;SDS011;40315;48.620;9.828;2023-04-03T03:53:30;2.93;;;2.40;;
54408;SDS011;40315;48.620;9.828;2023-04-03T03:56:02;3.63;;;2.70;;
54408;SDS011;40315;48.620;9.828;2023-04-03T03:58:31;3.87;;;2.87;;
54408;SDS011;40315;48.620;9.828;2023-04-03T04:01:00;3.72;;;2.72;;
54408;SDS011;40315;48.620;9.828;2023-04-03T04:03:27;2.80;;;2.50;;
54408;SDS011;40315;48.620;9.828;2023-04-03T04:05:59;2.40;;;2.20;;
54408;SDS011;40315;48.620;9.828;2023-04-03T04:08:26;2.70;;;2.23;;
54408;SDS011;40315;48.620;9.828;2023-04-03T04:10:55;3.37;;;2.27;;
54408;SDS011;40315;48.620;9.828;2023-04-03T04:13:22;2.17;;;1.97;;
54408;SDS011;40315;48.620;9.828;2023-04-03T04:15:50;2.43;;;2.23;;
54408;SDS011;40315;48.620;9.828;2023-04-03T04:18:17;3.63;;;2.40;;
54408;SDS011;40315;48.620;9.828;2023-04-03T04:20:47;2.30;;;2.10;;
54408;SDS011;40315;48.620;9.828;2023-04-03T04:23:18;3.00;;;2.40;;
54408;SDS011;40315;48.620;9.828;2023-04-03T04:25:46;2.53;;;2.13;;
54408;SDS011;40315;48.620;9.828;2023-04-03T04:28:15;3.23;;;2.10;;
54408;SDS011;40315;48.620;9.828;2023-04-03T04:30:42;4.60;;;2.53;;
54408;SDS011;40315;48.620;9.828;2023-04-03T04:33:09;2.87;;;2.40;;
54408;SDS011;40315;48.620;9.828;2023-04-03T04:35:37;3.63;;;2.40;;
54408;SDS011;40315;48.620;9.828;2023-04-03T04:38:04;3.53;;;2.23;;
54408;SDS011;40315;48.620;9.828;2023-04-03T04:40:35;2.03;;;1.90;;
54408;SDS011;40315;48.620;9.828;2023-04-03T04:43:03;2.80;;;2.23;;
54408;SDS011;40315;48.620;9.828;2023-04-03T04:45:34;2.60;;;2.37;;
54408;SDS011;40315;48.620;9.828;2023-04-03T04:48:01;2.37;;;2.10;;
54408;SDS011;40315;48.620;9.828;2023-04-03T04:50:28;3.77;;;2.17;;
54408;SDS011;40315;48.620;9.828;2023-04-03T04:52:56;4.07;;;1.97;;
54408;SDS011;40315;48.620;9.828;2023-04-03T04:55:25;2.67;;;2.13;;
54408;SDS011;40315;48.620;9.828;2023-04-03T04:57:53;2.80;;;1.80;;
54408;SDS011;40315;48.620;9.828;2023-04-03T05:00:21;2.80;;;2.00;;
54408;SDS011;40315;48.620;9.828;2023-04-03T05:02:48;2.75;;;2.05;;
54408;SDS011;40315;48.620;9.828;2023-04-03T05:05:17;3.53;;;2.50;;
54408;SDS011;40315;48.620;9.828;2023-04-03T05:07:45;4.20;;;3.17;;
54408;SDS011;40315;48.620;9.828;2023-04-03T05:10:13;4.83;;;3.70;;
54408;SDS011;40315;48.620;9.828;2023-04-03T05:12:41;3.57;;;2.70;;
54408;SDS011;40315;48.620;9.828;2023-04-03T05:15:10;3.30;;;2.53;;
54408;SDS011;40315;48.620;9.828;2023-04-03T05:17:37;4.10;;;3.00;;
54408;SDS011;40315;48.620;9.828;2023-04-03T05:20:06;5.40;;;3.97;;
54408;SDS011;40315;48.620;9.828;2023-04-03T05:22:34;4.17;;;3.50;;
54408;SDS011;40315;48.620;9.828;2023-04-03T05:25:05;2.57;;;2.30;;
54408;SDS011;40315;48.620;9.828;2023-04-03T05:27:34;3.27;;;2.30;;
54408;SDS011;40315;48.620;9.828;2023-04-03T05:30:04;3.37;;;1.97;;
54408;SDS011;40315;48.620;9.828;2023-04-03T05:32:35;2.50;;;1.90;;
54408;SDS011;40315;48.620;9.828;2023-04-03T05:35:13;2.77;;;2.37;;
54408;SDS011;40315;48.620;9.828;2023-04-03T05:37:41;2.20;;;1.98;;
54408;SDS011;40315;48.620;9.828;2023-04-03T05:40:09;4.30;;;2.60;;
54408;SDS011;40315;48.620;9.828;2023-04-03T05:42:40;3.57;;;2.50;;
54408;SDS011;40315;48.620;9.828;2023-04-03T05:45:07;4.87;;;3.00;;
54408;SDS011;40315;48.620;9.828;2023-04-03T05:47:36;3.77;;;2.43;;
54408;SDS011;40315;48.620;9.828;2023-04-03T05:50:05;3.00;;;2.53;;
54408;SDS011;40315;48.620;9.828;2023-04-03T05:52:33;6.33;;;2.43;;
54408;SDS011;40315;48.620;9.828;2023-04-03T05:55:02;2.43;;;2.17;;
54408;SDS011;40315;48.620;9.828;2023-04-03T05:57:33;2.90;;;2.33;;
54408;SDS011;40315;48.620;9.828;2023-04-03T06:00:00;6.00;;;2.53;;
54408;SDS011;40315;48.620;9.828;2023-04-03T06:02:29;2.53;;;2.27;;
54408;SDS011;40315;48.620;9.828;2023-04-03T06:04:58;2.90;;;2.50;;
54408;SDS011;40315;48.620;9.828;2023-04-03T06:07:27;2.30;;;2.10;;
54408;SDS011;40315;48.620;9.828;2023-04-03T06:09:55;2.50;;;2.30;;
54408;SDS011;40315;48.620;9.828;2023-04-03T06:12:22;2.40;;;1.90;;
54408;SDS011;40315;48.620;9.828;2023-04-03T06:14:50;2.60;;;2.10;;
54408;SDS011;40315;48.620;9.828;2023-04-03T06:17:17;3.43;;;2.30;;
54408;SDS011;40315;48.620;9.828;2023-04-03T06:19:46;3.30;;;2.47;;
54408;SDS011;40315;48.620;9.828;2023-04-03T06:22:15;2.50;;;2.17;;
54408;SDS011;40315;48.620;9.828;2023-04-03T06:24:44;2.60;;;2.27;;
54408;SDS011;40315;48.620;9.828;2023-04-03T06:27:12;2.47;;;2.20;;
54408;SDS011;40315;48.620;9.828;2023-04-03T06:29:39;3.20;;;2.50;;
54408;SDS011;40315;48.620;9.828;2023-04-03T06:32:06;2.50;;;2.30;;
54408;SDS011;40315;48.620;9.828;2023-04-03T06:34:33;2.20;;;2.00;;
54408;SDS011;40315;48.620;9.828;2023-04-03T06:37:00;2.87;;;2.47;;
54408;SDS011;40315;48.620;9.828;2023-04-03T06:39:29;4.27;;;2.33;;
54408;SDS011;40315;48.620;9.828;2023-04-03T06:41:57;2.33;;;2.13;;
54408;SDS011;40315;48.620;9.828;2023-04-03T06:44:29;2.27;;;1.90;;
54408;SDS011;40315;48.620;9.828;2023-04-03T06:46:59;6.20;;;2.67;;
54408;SDS011;40315;48.620;9.828;2023-04-03T06:49:28;2.87;;;1.90;;
54408;SDS011;40315;48.620;9.828;2023-04-03T06:51:59;10.20;;;2.60;;
54408;SDS011;40315;48.620;9.828;2023-04-03T06:54:26;5.93;;;2.13;;
54408;SDS011;40315;48.620;9.828;2023-04-03T06:56:54;3.50;;;2.20;;
54408;SDS011;40315;48.620;9.828;2023-04-03T06:59:21;2.63;;;2.00;;
54408;SDS011;40315;48.620;9.828;2023-04-03T07:01:48;3.03;;;2.00;;
54408;SDS011;40315;48.620;9.828;2023-04-03T07:04:16;2.90;;;1.93;;
54408;SDS011;40315;48.620;9.828;2023-04-03T07:06:45;2.37;;;1.70;;
54408;SDS011;40315;48.620;9.828;2023-04-03T07:09:12;3.65;;;2.00;;
54408;SDS011;40315;48.620;9.828;2023-04-03T07:11:39;4.57;;;2.23;;
54408;SDS011;40315;48.620;9.828;2023-04-03T07:14:08;3.13;;;2.00;;
54408;SDS011;40315;48.620;9.828;2023-04-03T07:16:35;2.77;;;1.90;;
54408;SDS011;40315;48.620;9.828;2023-04-03T07:19:02;2.30;;;1.77;;
54408;SDS011;40315;48.620;9.828;2023-04-03T07:21:30;2.53;;;2.00;;
54408;SDS011;40315;48.620;9.828;2023-04-03T07:23:57;2.83;;;1.80;;
54408;SDS011;40315;48.620;9.828;2023-04-03T07:26:24;2.73;;;2.17;;
54408;SDS011;40315;48.620;9.828;2023-04-03T07:28:51;1.97;;;1.70;;
54408;SDS011;40315;48.620;9.828;2023-04-03T07:31:20;4.53;;;1.90;;
54408;SDS011;40315;48.620;9.828;2023-04-03T07:33:48;2.10;;;1.90;;
54408;SDS011;40315;48.620;9.828;2023-04-03T07:36:16;5.00;;;2.20;;
54408;SDS011;40315;48.620;9.828;2023-04-03T07:38:44;3.83;;;2.17;;
54408;SDS011;40315;48.620;9.828;2023-04-03T07:41:12;3.08;;;1.60;;
54408;SDS011;40315;48.620;9.828;2023-04-03T07:43:42;10.85;;;2.88;;
54408;SDS011;40315;48.620;9.828;2023-04-03T07:46:10;5.03;;;2.10;;
54408;SDS011;40315;48.620;9.828;2023-04-03T07:48:41;5.00;;;2.50;;
54408;SDS011;40315;48.620;9.828;2023-04-03T07:51:09;4.38;;;3.10;;
54408;SDS011;40315;48.620;9.828;2023-04-03T07:53:36;2.95;;;2.30;;
54408;SDS011;40315;48.620;9.828;2023-04-03T07:56:03;2.38;;;1.90;;
54408;SDS011;40315;48.620;9.828;2023-04-03T07:58:30;3.42;;;2.30;;
54408;SDS011;40315;48.620;9.828;2023-04-03T08:00:58;2.30;;;2.08;;
54408;SDS011;40315;48.620;9.828;2023-04-03T08:03:25;3.90;;;1.90;;
54408;SDS011;40315;48.620;9.828;2023-04-03T08:05:53;2.20;;;2.00;;
54408;SDS011;40315;48.620;9.828;2023-04-03T08:08:21;3.00;;;2.13;;
54408;SDS011;40315;48.620;9.828;2023-04-03T08:10:50;2.88;;;2.13;;
54408;SDS011;40315;48.620;9.828;2023-04-03T08:13:18;2.70;;;2.13;;
54408;SDS011;40315;48.620;9.828;2023-04-03T08:15:45;3.00;;;2.38;;
54408;SDS011;40315;48.620;9.828;2023-04-03T08:18:13;2.50;;;2.30;;
54408;SDS011;40315;48.620;9.828;2023-04-03T08:20:41;2.78;;;2.42;;
54408;SDS011;40315;48.620;9.828;2023-04-03T08:23:13;3.50;;;2.10;;
54408;SDS011;40315;48.620;9.828;2023-04-03T08:25:41;3.13;;;2.30;;
54408;SDS011;40315;48.620;9.828;2023-04-03T08:28:12;3.10;;;2.28;;
54408;SDS011;40315;48.620;9.828;2023-04-03T08:30:42;3.20;;;2.30;;
54408;SDS011;40315;48.620;9.828;2023-04-03T08:33:09;2.50;;;2.30;;
54408;SDS011;40315;48.620;9.828;2023-04-03T08:35:39;2.88;;;2.00;;
54408;SDS011;40315;48.620;9.828;2023-04-03T08:38:07;4.22;;;2.40;;
54408;SDS011;40315;48.620;9.828;2023-04-03T08:40:36;3.22;;;2.50;;
54408;SDS011;40315;48.620;9.828;2023-04-03T08:43:09;4.28;;;2.65;;
54408;SDS011;40315;48.620;9.828;2023-04-03T08:45:55;3.42;;;2.35;;
54408;SDS011;40315;48.620;9.828;2023-04-03T08:48:24;4.15;;;2.60;;
54408;SDS011;40315;48.620;9.828;2023-04-03T08:50:56;3.28;;;2.70;;
54408;SDS011;40315;48.620;9.828;2023-04-03T08:53:28;3.05;;;2.35;;
54408;SDS011;40315;48.620;9.828;2023-04-03T08:55:59;4.10;;;2.88;;
54408;SDS011;40315;48.620;9.828;2023-04-03T08:58:29;2.92;;;2.70;;
54408;SDS011;40315;48.620;9.828;2023-04-03T09:01:00;3.40;;;2.67;;
54408;SDS011;40315;48.620;9.828;2023-04-03T09:03:29;4.18;;;3.05;;
54408;SDS011;40315;48.620;9.828;2023-04-03T09:05:59;2.65;;;2.20;;
54408;SDS011;40315;48.620;9.828;2023-04-03T09:08:30;4.43;;;2.50;;
54408;SDS011;40315;48.620;9.828;2023-04-03T09:11:04;4.05;;;2.50;;
54408;SDS011;40315;48.620;9.828;2023-04-03T09:13:41;3.25;;;2.42;;
54408;SDS011;40315;48.620;9.828;2023-04-03T09:16:17;3.50;;;2.25;;
54408;SDS011;40315;48.620;9.828;2023-04-03T09:18:52;2.50;;;2.30;;
54408;SDS011;40315;48.620;9.828;2023-04-03T09:21:29;4.40;;;2.60;;
54408;SDS011;40315;48.620;9.828;2023-04-03T09:24:01;2.95;;;2.13;;
54408;SDS011;40315;48.620;9.828;2023-04-03T09:26:34;5.30;;;2.60;;
54408;SDS011;40315;48.620;9.828;2023-04-03T09:29:07;3.42;;;2.60;;
54408;SDS011;40315;48.620;9.828;2023-04-03T09:31:36;2.60;;;2.40;;
54408;SDS011;40315;48.620;9.828;2023-04-03T09:34:06;3.13;;;2.17;;
54408;SDS011;40315;48.620;9.828;2023-04-03T09:36:40;3.30;;;2.28;;
54408;SDS011;40315;48.620;9.828;2023-04-03T09:39:10;3.67;;;2.17;;
54408;SDS011;40315;48.620;9.828;2023-04-03T09:41:41;2.60;;;2.08;;
54408;SDS011;40315;48.620;9.828;2023-04-03T09:44:21;3.05;;;1.90;;
54408;SDS011;40315;48.620;9.828;2023-04-03T09:46:50;2.30;;;1.90;;
54408;SDS011;40315;48.620;9.828;2023-04-03T09:49:18;4.07;;;2.10;;
54408;SDS011;40315;48.620;9.828;2023-04-03T09:51:47;4.32;;;1.98;;
54408;SDS011;40315;48.620;9.828;2023-04-03T09:54:30;2.67;;;1.75;;
54408;SDS011;40315;48.620;9.828;2023-04-03T09:57:19;2.13;;;1.92;;
54408;SDS011;40315;48.620;9.828;2023-04-03T09:59:47;2.33;;;1.92;;
54408;SDS011;40315;48.620;9.828;2023-04-03T10:02:34;2.80;;;2.13;;
54408;SDS011;40315;48.620;9.828;2023-04-03T10:05:03;2.17;;;1.88;;
54408;SDS011;40315;48.620;9.828;2023-04-03T10:07:33;3.20;;;1.92;;
54408;SDS011;40315;48.620;9.828;2023-04-03T10:10:03;2.55;;;1.80;;
54408;SDS011;40315;48.620;9.828;2023-04-03T10:12:46;1.77;;;1.52;;
54408;SDS011;40315;48.620;9.828;2023-04-03T10:15:14;2.72;;;1.70;;
54408;SDS011;40315;48.620;9.828;2023-04-03T10:17:48;2.78;;;2.03;;
54408;SDS011;40315;48.620;9.828;2023-04-03T10:20:26;3.75;;;1.70;;
54408;SDS011;40315;48.620;9.828;2023-04-03T10:23:05;1.88;;;1.70;;
54408;SDS011;40315;48.620;9.828;2023-04-03T10:25:43;4.13;;;2.10;;
54408;SDS011;40315;48.620;9.828;2023-04-03T10:28:25;2.20;;;1.65;;
54408;SDS011;40315;48.620;9.828;2023-04-03T10:31:02;1.67;;;1.40;;
54408;SDS011;40315;48.620;9.828;2023-04-03T10:33:39;1.60;;;1.40;;
54408;SDS011;40315;48.620;9.828;2023-04-03T10:36:19;2.75;;;1.38;;
54408;SDS011;40315;48.620;9.828;2023-04-03T10:38:55;2.50;;;1.27;;
54408;SDS011;40315;48.620;9.828;2023-04-03T10:41:31;1.58;;;1.38;;
54408;SDS011;40315;48.620;9.828;2023-04-03T10:44:11;2.38;;;1.60;;
54408;SDS011;40315;48.620;9.828;2023-04-03T10:46:47;1.35;;;1.25;;
54408;SDS011;40315;48.620;9.828;2023-04-03T10:49:25;1.88;;;1.40;;
54408;SDS011;40315;48.620;9.828;2023-04-03T10:52:05;2.47;;;1.63;;
54408;SDS011;40315;48.620;9.828;2023-04-03T10:54:36;1.33;;;1.23;;
54408;SDS011;40315;48.620;9.828;2023-04-03T10:57:08;2.05;;;1.40;;
54408;SDS011;40315;48.620;9.828;2023-04-03T10:59:40;1.65;;;1.55;;
54408;SDS011;40315;48.620;9.828;2023-04-03T11:02:13;1.70;;;1.50;;
54408;SDS011;40315;48.620;9.828;2023-04-03T11:04:48;1.83;;;1.35;;
54408;SDS011;40315;48.620;9.828;2023-04-03T11:07:22;2.90;;;1.63;;
54408;SDS011;40315;48.620;9.828;2023-04-03T11:09:53;2.13;;;1.42;;
54408;SDS011;40315;48.620;9.828;2023-04-03T11:12:26;4.38;;;2.22;;
54408;SDS011;40315;48.620;9.828;2023-04-03T11:14:58;3.65;;;2.03;;
54408;SDS011;40315;48.620;9.828;2023-04-03T11:17:30;2.05;;;1.60;;
54408;SDS011;40315;48.620;9.828;2023-04-03T11:20:03;3.20;;;1.63;;
54408;SDS011;40315;48.620;9.828;2023-04-03T11:22:38;2.00;;;1.80;;
54408;SDS011;40315;48.620;9.828;2023-04-03T11:25:14;2.22;;;1.65;;
54408;SDS011;40315;48.620;9.828;2023-04-03T11:27:48;2.50;;;1.70;;
54408;SDS011;40315;48.620;9.828;2023-04-03T11:30:22;2.75;;;1.50;;
54408;SDS011;40315;48.620;9.828;2023-04-03T11:32:56;2.17;;;1.70;;
54408;SDS011;40315;48.620;9.828;2023-04-03T11:35:42;3.10;;;1.60;;
54408;SDS011;40315;48.620;9.828;2023-04-03T11:38:13;2.85;;;1.95;;
54408;SDS011;40315;48.620;9.828;2023-04-03T11:40:47;5.30;;;2.15;;
54408;SDS011;40315;48.620;9.828;2023-04-03T11:43:24;2.83;;;1.60;;
54408;SDS011;40315;48.620;9.828;2023-04-03T11:45:55;2.20;;;1.40;;
54408;SDS011;40315;48.620;9.828;2023-04-03T11:54:35;3.15;;;1.50;;
54408;SDS011;40315;48.620;9.828;2023-04-03T12:06:50;2.95;;;1.60;;
54408;SDS011;40315;48.620;9.828;2023-04-03T12:12:42;2.83;;;1.45;;
54408;SDS011;40315;48.620;9.828;2023-04-03T12:15:26;2.15;;;1.58;;
54408;SDS011;40315;48.620;9.828;2023-04-03T12:21:19;2.30;;;1.70;;
54408;SDS011;40315;48.620;9.828;2023-04-03T12:24:03;1.55;;;1.45;;
54408;SDS011;40315;48.620;9.828;2023-04-03T12:26:50;2.22;;;1.65;;
54408;SDS011;40315;48.620;9.828;2023-04-03T12:29:29;2.25;;;1.73;;
54408;SDS011;40315;48.620;9.828;2023-04-03T12:32:05;5.63;;;1.73;;
54408;SDS011;40315;48.620;9.828;2023-04-03T12:34:44;2.53;;;1.50;;
54408;SDS011;40315;48.620;9.828;2023-04-03T12:37:37;2.33;;;2.00;;
54408;SDS011;40315;48.620;9.828;2023-04-03T12:40:23;2.72;;;1.90;;
54408;SDS011;40315;48.620;9.828;2023-04-03T12:43:13;3.08;;;1.90;;
54408;SDS011;40315;48.620;9.828;2023-04-03T12:45:50;2.58;;;2.05;;
54408;SDS011;40315;48.620;9.828;2023-04-03T12:48:24;3.30;;;2.17;;
54408;SDS011;40315;48.620;9.828;2023-04-03T12:50:52;3.95;;;2.17;;
54408;SDS011;40315;48.620;9.828;2023-04-03T12:53:24;2.65;;;1.75;;
54408;SDS011;40315;48.620;9.828;2023-04-03T12:55:57;3.75;;;2.17;;
54408;SDS011;40315;48.620;9.828;2023-04-03T12:58:44;2.28;;;1.80;;
54408;SDS011;40315;48.620;9.828;2023-04-03T13:01:11;3.78;;;2.00;;
54408;SDS011;40315;48.620;9.828;2023-04-03T13:03:44;2.05;;;1.85;;
54408;SDS011;40315;48.620;9.828;2023-04-03T13:06:14;2.50;;;1.65;;
54408;SDS011;40315;48.620;9.828;2023-04-03T13:08:48;2.15;;;1.83;;
54408;SDS011;40315;48.620;9.828;2023-04-03T13:11:17;2.15;;;1.50;;
54408;SDS011;40315;48.620;9.828;2023-04-03T13:13:56;3.80;;;1.52;;
54408;SDS011;40315;48.620;9.828;2023-04-03T13:16:24;2.30;;;1.63;;
54408;SDS011;40315;48.620;9.828;2023-04-03T13:18:52;2.60;;;1.50;;
54408;SDS011;40315;48.620;9.828;2023-04-03T13:21:20;2.20;;;1.55;;
54408;SDS011;40315;48.620;9.828;2023-04-03T13:23:51;2.92;;;1.67;;
54408;SDS011;40315;48.620;9.828;2023-04-03T13:26:22;1.95;;;1.50;;
54408;SDS011;40315;48.620;9.828;2023-04-03T13:28:53;2.60;;;1.80;;
54408;SDS011;40315;48.620;9.828;2023-04-03T13:31:23;3.22;;;1.67;;
54408;SDS011;40315;48.620;9.828;2023-04-03T13:33:54;2.90;;;1.67;;
54408;SDS011;40315;48.620;9.828;2023-04-03T13:36:24;3.75;;;1.90;;
54408;SDS011;40315;48.620;9.828;2023-04-03T13:38:59;2.78;;;1.75;;
54408;SDS011;40315;48.620;9.828;2023-04-03T13:41:49;2.65;;;2.03;;
54408;SDS011;40315;48.620;9.828;2023-04-03T13:44:23;2.65;;;2.05;;
54408;SDS011;40315;48.620;9.828;2023-04-03T13:46:58;2.50;;;2.00;;
54408;SDS011;40315;48.620;9.828;2023-04-03T13:49:34;3.60;;;1.90;;
54408;SDS011;40315;48.620;9.828;2023-04-03T13:52:03;2.17;;;1.58;;
54408;SDS011;40315;48.620;9.828;2023-04-03T13:54:47;2.35;;;2.00;;
54408;SDS011;40315;48.620;9.828;2023-04-03T13:57:19;3.35;;;1.83;;
54408;SDS011;40315;48.620;9.828;2023-04-03T13:59:47;3.03;;;2.10;;
54408;SDS011;40315;48.620;9.828;2023-04-03T14:02:16;3.08;;;1.85;;
54408;SDS011;40315;48.620;9.828;2023-04-03T14:04:50;5.00;;;1.77;;
54408;SDS011;40315;48.620;9.828;2023-04-03T14:07:21;2.63;;;2.17;;
54408;SDS011;40315;48.620;9.828;2023-04-03T14:09:48;2.95;;;2.03;;
54408;SDS011;40315;48.620;9.828;2023-04-03T14:12:17;2.95;;;1.83;;
54408;SDS011;40315;48.620;9.828;2023-04-03T14:14:50;2.13;;;1.88;;
54408;SDS011;40315;48.620;9.828;2023-04-03T14:17:18;2.47;;;1.77;;
54408;SDS011;40315;48.620;9.828;2023-04-03T14:19:49;1.70;;;1.60;;
54408;SDS011;40315;48.620;9.828;2023-04-03T14:22:17;3.47;;;1.83;;
54408;SDS011;40315;48.620;9.828;2023-04-03T14:24:46;3.10;;;2.15;;
54408;SDS011;40315;48.620;9.828;2023-04-03T14:27:15;2.63;;;1.80;;
54408;SDS011;40315;48.620;9.828;2023-04-03T14:29:47;2.70;;;2.08;;
54408;SDS011;40315;48.620;9.828;2023-04-03T14:32:16;2.53;;;2.10;;
54408;SDS011;40315;48.620;9.828;2023-04-03T14:34:45;2.70;;;2.15;;
54408;SDS011;40315;48.620;9.828;2023-04-03T14:37:15;2.90;;;2.40;;
54408;SDS011;40315;48.620;9.828;2023-04-03T14:39:47;3.20;;;2.17;;
54408;SDS011;40315;48.620;9.828;2023-04-03T14:42:18;3.33;;;2.35;;
54408;SDS011;40315;48.620;9.828;2023-04-03T14:44:50;3.05;;;1.90;;
54408;SDS011;40315;48.620;9.828;2023-04-03T14:47:19;3.70;;;2.70;;
54408;SDS011;40315;48.620;9.828;2023-04-03T14:49:47;2.53;;;2.00;;
54408;SDS011;40315;48.620;9.828;2023-04-03T14:52:16;3.35;;;2.00;;
54408;SDS011;40315;48.620;9.828;2023-04-03T14:54:48;2.65;;;2.10;;
54408;SDS011;40315;48.620;9.828;2023-04-03T14:57:15;5.93;;;2.00;;
54408;SDS011;40315;48.620;9.828;2023-04-03T14:59:43;2.17;;;1.70;;
54408;SDS011;40315;48.620;9.828;2023-04-03T15:02:22;4.13;;;2.08;;
54408;SDS011;40315;48.620;9.828;2023-04-03T15:04:52;2.60;;;1.92;;
54408;SDS011;40315;48.620;9.828;2023-04-03T15:07:21;3.22;;;2.20;;
54408;SDS011;40315;48.620;9.828;2023-04-03T15:09:50;2.17;;;1.90;;
54408;SDS011;40315;48.620;9.828;2023-04-03T15:12:17;2.33;;;1.60;;
54408;SDS011;40315;48.620;9.828;2023-04-03T15:14:44;2.33;;;1.77;;
54408;SDS011;40315;48.620;9.828;2023-04-03T15:17:14;3.45;;;1.60;;
54408;SDS011;40315;48.620;9.828;2023-04-03T15:19:44;3.95;;;1.80;;
54408;SDS011;40315;48.620;9.828;2023-04-03T15:22:12;5.05;;;1.73;;
54408;SDS011;40315;48.620;9.828;2023-04-03T15:24:41;2.58;;;1.70;;
54408;SDS011;40315;48.620;9.828;2023-04-03T15:27:08;2.00;;;1.77;;
54408;SDS011;40315;48.620;9.828;2023-04-03T15:29:38;3.55;;;1.73;;
54408;SDS011;40315;48.620;9.828;2023-04-03T15:32:07;1.63;;;1.40;;
54408;SDS011;40315;48.620;9.828;2023-04-03T15:34:35;3.33;;;2.20;;
54408;SDS011;40315;48.620;9.828;2023-04-03T15:37:04;3.15;;;1.90;;
54408;SDS011;40315;48.620;9.828;2023-04-03T15:39:31;2.03;;;1.73;;
54408;SDS011;40315;48.620;9.828;2023-04-03T15:41:58;4.53;;;1.50;;